Roslyn, Washington
Current Conditions -  °F | °C
As of 10:00 AM on Thursday 23 Oct 2014 (Local Time) from KELN Reporting Station
Overcast Overcast  
Wind Chill: 49°   Ceiling: 2800
Heat Index: 49°   Visibility: 10mi
Dew Point: 45°   Wind: 0mph
Humidity: 86%   Direction: NA
Pressure: 29.77"   Gusts: NA
Location:  47.22°N, 120.99°W
Report Text: KELN 231700Z AUTO 00000KT 10SM SCT003 BKN028 OVC065 09/07 A2977 RMK AO2 T00940072
Loading
Personal Weather Stations






























Interactive Weather Map
Tropical Storm Tracking
New forecast layout! Learn more

10-Day Weather Forecast

Advertisements
Track Severe Weather on mobile